createdAt,value
2024-02-07T00:00:32.046Z,2.80
2024-02-07T00:03:05.833Z,3.20
2024-02-07T00:08:12.115Z,3.47
2024-02-07T00:10:45.406Z,3.58
2024-02-07T00:13:20.115Z,2.67
2024-02-07T00:15:53.332Z,2.83
2024-02-07T00:18:26.570Z,3.25
2024-02-07T00:20:59.742Z,3.30
2024-02-07T00:23:33.141Z,3.30
2024-02-07T00:26:06.305Z,3.00
2024-02-07T00:28:40.836Z,3.13
2024-02-07T00:31:14.099Z,3.35
2024-02-07T00:33:47.479Z,5.22
2024-02-07T00:36:20.632Z,3.38
2024-02-07T00:38:53.803Z,3.20
2024-02-07T00:41:27.702Z,2.50
2024-02-07T00:44:02.313Z,3.00
2024-02-07T00:46:35.538Z,3.40
2024-02-07T00:49:13.798Z,2.92
2024-02-07T00:51:47.048Z,2.78
2024-02-07T00:54:20.214Z,2.65
2024-02-07T00:56:56.515Z,3.25
2024-02-07T00:59:31.006Z,3.33
2024-02-07T01:02:04.671Z,3.45
2024-02-07T01:04:37.942Z,2.67
2024-02-07T01:07:11.313Z,2.22
2024-02-07T01:09:45.205Z,3.22
2024-02-07T01:12:20.171Z,3.05
2024-02-07T01:14:55.123Z,2.65
2024-02-07T01:17:28.483Z,2.53
2024-02-07T01:20:01.813Z,2.35
2024-02-07T01:22:35.105Z,2.15
2024-02-07T01:25:08.848Z,4.32
2024-02-07T01:30:16.831Z,2.42
2024-02-07T01:32:50.139Z,3.70
2024-02-07T01:35:24.454Z,2.25
2024-02-07T01:38:05.887Z,2.55
2024-02-07T01:40:44.049Z,5.07
2024-02-07T01:43:17.690Z,4.75
2024-02-07T01:45:52.284Z,4.25
2024-02-07T01:48:25.701Z,2.38
2024-02-07T01:51:00.052Z,4.65
2024-02-07T01:53:35.308Z,2.88
2024-02-07T01:56:09.163Z,3.53
2024-02-07T01:58:42.516Z,2.22
2024-02-07T02:01:17.177Z,2.58
2024-02-07T02:03:50.534Z,2.45
2024-02-07T02:06:23.732Z,5.72
2024-02-07T02:08:57.033Z,2.10
2024-02-07T02:11:37.051Z,2.40
2024-02-07T02:14:10.665Z,3.40
2024-02-07T02:16:45.311Z,2.90
2024-02-07T02:19:19.205Z,3.25
2024-02-07T02:22:19.178Z,4.07
2024-02-07T02:25:08.995Z,2.70
2024-02-07T02:27:53.560Z,2.25
2024-02-07T02:30:35.213Z,3.13
2024-02-07T02:33:14.086Z,2.85
2024-02-07T02:35:48.396Z,2.45
2024-02-07T02:38:24.839Z,2.25
2024-02-07T02:40:58.069Z,2.53
2024-02-07T02:43:31.641Z,2.10
2024-02-07T02:46:08.414Z,1.73
2024-02-07T02:48:41.870Z,2.53
2024-02-07T02:51:15.169Z,2.80
2024-02-07T02:53:49.080Z,3.22
2024-02-07T02:56:22.269Z,3.50
2024-02-07T02:58:55.498Z,2.10
2024-02-07T03:01:30.334Z,2.38
2024-02-07T03:04:05.212Z,3.25
2024-02-07T03:06:52.200Z,2.47
2024-02-07T03:09:27.954Z,2.15
2024-02-07T03:12:01.148Z,2.03
2024-02-07T03:14:34.326Z,2.15
2024-02-07T03:17:09.846Z,3.05
2024-02-07T03:19:43.117Z,2.13
2024-02-07T03:22:16.437Z,4.05
2024-02-07T03:24:54.752Z,2.15
2024-02-07T03:27:27.917Z,2.47
2024-02-07T03:30:01.062Z,3.40
2024-02-07T03:32:36.360Z,2.40
2024-02-07T03:35:11.106Z,3.05
2024-02-07T03:37:44.541Z,2.05
2024-02-07T03:40:18.258Z,1.90
2024-02-07T03:42:52.144Z,2.47
2024-02-07T03:48:01.148Z,2.65
2024-02-07T03:50:34.437Z,2.58
2024-02-07T03:53:09.062Z,2.13
2024-02-07T03:55:42.280Z,1.70
2024-02-07T03:58:15.523Z,2.63
2024-02-07T04:00:50.521Z,1.75
2024-02-07T04:03:25.078Z,2.60
2024-02-07T04:05:58.505Z,2.85
2024-02-07T04:08:31.897Z,2.22
2024-02-07T04:11:08.786Z,2.75
2024-02-07T04:13:40.915Z,2.13
2024-02-07T04:16:32.177Z,2.33
2024-02-07T04:19:24.344Z,2.05
2024-02-07T04:22:14.813Z,1.65
2024-02-07T04:25:05.339Z,2.47
2024-02-07T04:27:55.892Z,2.65
2024-02-07T04:30:46.275Z,2.30
2024-02-07T04:33:36.898Z,2.22
2024-02-07T04:36:28.774Z,2.42
2024-02-07T04:39:19.376Z,2.47
2024-02-07T04:42:09.942Z,2.33
2024-02-07T04:45:00.701Z,1.73
2024-02-07T04:47:51.389Z,2.22
2024-02-07T04:50:41.905Z,1.67
2024-02-07T04:53:33.964Z,2.72
2024-02-07T04:56:24.762Z,1.58
2024-02-07T04:59:15.581Z,1.38
2024-02-07T05:02:07.666Z,2.22
2024-02-07T05:04:59.836Z,2.50
2024-02-07T05:07:50.350Z,2.75
2024-02-07T05:10:42.510Z,2.05
2024-02-07T05:13:33.047Z,2.28
2024-02-07T05:16:11.448Z,3.15
2024-02-07T05:18:44.929Z,3.30
2024-02-07T05:21:20.093Z,2.60
2024-02-07T05:23:53.261Z,3.30
2024-02-07T05:26:27.771Z,6.28
2024-02-07T05:29:01.076Z,2.55
2024-02-07T05:31:34.373Z,1.92
2024-02-07T05:34:07.757Z,2.45
2024-02-07T05:36:41.095Z,3.03
2024-02-07T05:39:14.207Z,2.33
2024-02-07T05:41:48.709Z,1.58
2024-02-07T05:44:21.978Z,2.00
2024-02-07T05:46:55.335Z,3.58
2024-02-07T05:49:28.621Z,2.47
2024-02-07T05:52:03.221Z,1.67
2024-02-07T05:54:36.670Z,2.85
2024-02-07T05:57:11.148Z,2.80
2024-02-07T05:59:44.306Z,2.35
2024-02-07T06:02:18.484Z,2.03
2024-02-07T06:04:52.432Z,2.33
2024-02-07T06:07:25.723Z,2.30
2024-02-07T06:09:59.046Z,1.65
2024-02-07T06:12:35.152Z,1.58
2024-02-07T06:15:09.268Z,1.40
2024-02-07T06:20:16.496Z,2.07
2024-02-07T06:25:23.048Z,1.75
2024-02-07T06:27:57.561Z,1.70
2024-02-07T06:30:30.741Z,1.73
2024-02-07T06:33:05.158Z,1.38
2024-02-07T06:35:38.560Z,1.30
2024-02-07T06:38:11.682Z,2.13
2024-02-07T06:40:44.872Z,2.20
2024-02-07T06:43:19.383Z,1.88
2024-02-07T06:45:52.565Z,2.78
2024-02-07T06:48:25.827Z,1.58
2024-02-07T06:50:59.013Z,1.52
2024-02-07T06:53:32.320Z,1.77
2024-02-07T06:56:06.260Z,1.40
2024-02-07T06:58:40.877Z,1.55
2024-02-07T07:01:14.841Z,1.25
2024-02-07T07:03:51.542Z,1.50
2024-02-07T07:06:25.037Z,1.60
2024-02-07T07:08:58.377Z,2.30
2024-02-07T07:11:31.605Z,1.20
2024-02-07T07:14:06.288Z,1.65
2024-02-07T07:16:39.596Z,1.75
2024-02-07T07:19:14.078Z,1.88
2024-02-07T07:21:47.532Z,1.50
2024-02-07T07:24:20.683Z,1.73
2024-02-07T07:26:53.844Z,1.88
2024-02-07T07:29:28.382Z,1.60
2024-02-07T07:32:01.982Z,1.30
2024-02-07T07:34:35.313Z,1.55
2024-02-07T07:37:08.552Z,1.30
2024-02-07T07:39:43.531Z,1.58
2024-02-07T07:42:16.663Z,1.58
2024-02-07T07:44:51.358Z,1.80
2024-02-07T07:47:24.510Z,1.40
2024-02-07T07:49:58.047Z,2.75
2024-02-07T07:52:31.313Z,1.92
2024-02-07T07:55:04.816Z,1.60
2024-02-07T07:57:38.037Z,1.90
2024-02-07T08:00:13.260Z,1.65
2024-02-07T08:02:46.386Z,1.40
2024-02-07T08:05:19.877Z,1.80
2024-02-07T08:10:26.449Z,1.27
2024-02-07T08:12:59.586Z,1.48
2024-02-07T08:15:34.069Z,1.30
2024-02-07T08:18:07.585Z,1.52
2024-02-07T08:20:40.701Z,1.85
2024-02-07T08:23:14.176Z,2.13
2024-02-07T08:25:47.970Z,1.13
2024-02-07T08:28:21.216Z,1.35
2024-02-07T08:30:55.690Z,1.48
2024-02-07T08:33:28.951Z,2.10
2024-02-07T08:36:02.374Z,3.28
2024-02-07T08:38:35.752Z,3.45
2024-02-07T08:41:12.169Z,1.95
2024-02-07T08:43:45.309Z,1.30
2024-02-07T08:46:19.849Z,1.88
2024-02-07T08:48:53.046Z,2.42
2024-02-07T08:51:26.193Z,2.28
2024-02-07T08:53:59.747Z,2.75
2024-02-07T08:56:32.895Z,2.13
2024-02-07T08:59:06.101Z,3.00
2024-02-07T09:01:40.604Z,2.65
2024-02-07T09:04:13.788Z,2.75
2024-02-07T09:06:48.095Z,3.08
2024-02-07T09:09:21.234Z,2.75
2024-02-07T09:11:54.343Z,1.98
2024-02-07T09:14:27.464Z,2.40
2024-02-07T09:17:01.979Z,3.03
2024-02-07T09:19:35.626Z,3.13
2024-02-07T09:22:08.796Z,2.28
2024-02-07T09:24:42.580Z,2.75
2024-02-07T09:29:53.436Z,5.40
2024-02-07T09:32:33.495Z,2.27
2024-02-07T09:35:08.031Z,3.33
2024-02-07T09:37:42.898Z,3.40
2024-02-07T09:40:17.213Z,3.45
2024-02-07T09:42:52.774Z,3.05
2024-02-07T09:45:30.513Z,2.30
2024-02-07T09:48:13.655Z,3.25
2024-02-07T09:50:48.202Z,3.40
2024-02-07T09:53:22.730Z,3.47
2024-02-07T09:55:56.388Z,3.53
2024-02-07T09:58:31.604Z,3.40
2024-02-07T10:01:08.094Z,3.78
2024-02-07T10:03:48.086Z,3.22
2024-02-07T10:06:21.857Z,3.20
2024-02-07T10:08:56.808Z,2.80
2024-02-07T10:11:32.104Z,2.33
2024-02-07T10:14:06.063Z,2.67
2024-02-07T10:16:39.259Z,2.33
2024-02-07T10:19:14.268Z,2.85
2024-02-07T10:21:47.490Z,2.38
2024-02-07T10:24:20.688Z,2.60
2024-02-07T10:26:53.953Z,2.90
2024-02-07T10:29:27.318Z,2.80
2024-02-07T10:32:00.938Z,4.15
2024-02-07T10:34:37.751Z,3.83
2024-02-07T10:37:11.625Z,2.47
2024-02-07T10:39:44.867Z,2.58
2024-02-07T10:42:18.727Z,2.50
2024-02-07T10:50:12.884Z,2.17
2024-02-07T10:52:46.314Z,2.92
2024-02-07T10:55:21.150Z,2.25
2024-02-07T10:57:59.614Z,3.22
2024-02-07T11:00:33.106Z,3.17
2024-02-07T11:03:06.807Z,2.90
2024-02-07T11:05:42.605Z,2.50
2024-02-07T11:08:16.309Z,1.92
2024-02-07T11:10:50.517Z,1.90
2024-02-07T11:13:23.755Z,2.67
2024-02-07T11:15:57.085Z,2.42
2024-02-07T11:18:30.260Z,2.53
2024-02-07T11:21:07.843Z,3.03
2024-02-07T11:23:42.511Z,1.85
2024-02-07T11:26:16.965Z,2.42
2024-02-07T11:28:50.511Z,2.28
2024-02-07T11:31:24.838Z,2.72
2024-02-07T11:33:58.730Z,3.42
2024-02-07T11:36:35.941Z,2.55
2024-02-07T11:39:16.769Z,2.60
2024-02-07T11:41:50.271Z,2.60
2024-02-07T11:44:24.856Z,2.85
2024-02-07T11:47:02.676Z,2.97
2024-02-07T11:49:38.826Z,2.30
2024-02-07T11:52:14.938Z,2.35
2024-02-07T11:54:50.976Z,2.55
2024-02-07T11:57:25.406Z,3.42
2024-02-07T12:00:01.569Z,2.08
2024-02-07T12:02:36.605Z,2.90
2024-02-07T12:05:15.477Z,2.40
2024-02-07T12:07:52.128Z,2.30
2024-02-07T12:10:25.489Z,3.00
2024-02-07T12:12:58.709Z,3.10
2024-02-07T12:15:32.618Z,2.45
2024-02-07T12:18:07.018Z,3.50
2024-02-07T12:20:40.515Z,2.35
2024-02-07T12:23:15.068Z,3.25
2024-02-07T12:25:57.413Z,2.70
2024-02-07T12:28:30.981Z,2.20
2024-02-07T12:31:04.571Z,2.08
2024-02-07T12:33:37.783Z,2.50
2024-02-07T12:36:11.311Z,3.78
2024-02-07T12:38:45.927Z,3.47
2024-02-07T12:41:19.156Z,2.78
2024-02-07T12:43:52.376Z,2.70
2024-02-07T12:46:25.792Z,3.35
2024-02-07T12:49:01.267Z,2.17
2024-02-07T12:51:35.588Z,3.00
2024-02-07T12:54:10.525Z,3.60
2024-02-07T12:56:43.748Z,3.70
2024-02-07T12:59:29.014Z,4.38
2024-02-07T13:02:04.074Z,3.08
2024-02-07T13:04:37.835Z,3.55
2024-02-07T13:12:27.421Z,2.17
2024-02-07T13:15:04.166Z,3.72
2024-02-07T13:17:38.162Z,3.58
2024-02-07T13:20:12.665Z,2.55
2024-02-07T13:22:46.206Z,3.00
2024-02-07T13:25:22.830Z,2.40
2024-02-07T13:27:56.101Z,2.92
2024-02-07T13:30:29.292Z,2.20
2024-02-07T13:33:02.587Z,3.08
2024-02-07T13:35:35.794Z,2.67
2024-02-07T13:38:18.720Z,2.22
2024-02-07T13:41:01.676Z,3.05
2024-02-07T13:43:35.244Z,2.10
2024-02-07T13:46:08.479Z,2.60
2024-02-07T13:48:41.669Z,2.17
2024-02-07T13:51:14.918Z,5.43
2024-02-07T13:53:48.088Z,3.22
2024-02-07T13:56:22.727Z,2.63
2024-02-07T13:58:55.946Z,3.03
2024-02-07T14:01:29.219Z,3.92
2024-02-07T14:04:05.538Z,3.13
2024-02-07T14:06:39.033Z,3.17
2024-02-07T14:09:13.749Z,3.65
2024-02-07T14:11:48.283Z,3.45
2024-02-07T14:14:21.534Z,3.90
2024-02-07T14:16:54.799Z,6.45
2024-02-07T14:19:28.102Z,3.65
2024-02-07T14:22:04.266Z,3.90
2024-02-07T14:24:38.348Z,5.25
2024-02-07T14:27:14.335Z,6.15
2024-02-07T14:29:47.594Z,3.47
2024-02-07T14:32:20.749Z,2.90
2024-02-07T14:34:54.007Z,4.55
2024-02-07T14:37:27.274Z,3.72
2024-02-07T14:40:00.577Z,3.58
2024-02-07T14:42:35.311Z,5.28
2024-02-07T14:45:09.910Z,4.13
2024-02-07T14:47:43.205Z,4.35
2024-02-07T14:52:50.263Z,4.13
2024-02-07T14:55:23.761Z,4.72
2024-02-07T14:57:58.278Z,4.40
2024-02-07T15:00:32.458Z,5.70
2024-02-07T15:03:07.245Z,4.18
2024-02-07T15:05:40.590Z,4.68
2024-02-07T15:08:15.646Z,3.50
2024-02-07T15:10:48.890Z,4.15
2024-02-07T15:13:23.576Z,3.40
2024-02-07T15:15:56.819Z,4.22
2024-02-07T15:18:30.277Z,3.60
2024-02-07T15:21:03.444Z,4.15
2024-02-07T15:23:36.614Z,4.13
2024-02-07T15:26:10.010Z,3.13
2024-02-07T15:28:44.605Z,3.97
2024-02-07T15:31:17.895Z,4.80
2024-02-07T15:33:51.165Z,3.47
2024-02-07T15:36:24.732Z,4.70
2024-02-07T15:38:57.880Z,5.43
2024-02-07T15:41:31.037Z,3.65
2024-02-07T15:44:06.017Z,3.83
2024-02-07T15:46:39.334Z,3.45
2024-02-07T15:49:12.640Z,4.32
2024-02-07T15:51:45.845Z,3.60
2024-02-07T15:54:18.997Z,3.78
2024-02-07T15:57:01.573Z,4.28
2024-02-07T15:59:36.156Z,4.85
2024-02-07T16:02:09.465Z,4.57
2024-02-07T16:04:42.982Z,4.57
2024-02-07T16:07:16.449Z,3.95
2024-02-07T16:09:49.692Z,3.72
2024-02-07T16:12:22.805Z,4.03
2024-02-07T16:14:57.363Z,4.20
2024-02-07T16:17:30.560Z,3.45
2024-02-07T16:20:09.402Z,3.67
2024-02-07T16:22:42.784Z,3.85
2024-02-07T16:25:16.231Z,3.67
2024-02-07T16:27:50.127Z,3.83
2024-02-07T16:30:27.094Z,3.78
2024-02-07T16:33:01.601Z,3.53
2024-02-07T16:35:34.882Z,4.40
2024-02-07T16:38:08.160Z,3.85
2024-02-07T16:40:41.309Z,3.50
2024-02-07T16:43:14.499Z,3.40
2024-02-07T16:45:49.016Z,3.63
2024-02-07T16:48:22.302Z,2.80
2024-02-07T16:50:55.508Z,3.47
2024-02-07T16:53:28.642Z,2.70
2024-02-07T16:56:02.147Z,4.68
2024-02-07T16:58:35.454Z,3.78
2024-02-07T17:01:10.030Z,3.05
2024-02-07T17:03:43.260Z,4.03
2024-02-07T17:06:17.083Z,4.10
2024-02-07T17:08:50.598Z,5.20
2024-02-07T17:11:23.835Z,4.18
2024-02-07T17:13:57.037Z,3.45
2024-02-07T17:16:31.732Z,3.88
2024-02-07T17:19:04.982Z,3.75
2024-02-07T17:21:40.403Z,4.07
2024-02-07T17:24:13.616Z,3.50
2024-02-07T17:26:46.760Z,3.42
2024-02-07T17:29:19.913Z,3.47
2024-02-07T17:31:55.728Z,3.90
2024-02-07T17:34:29.007Z,4.47
2024-02-07T17:37:02.158Z,3.28
2024-02-07T17:39:35.324Z,2.90
2024-02-07T17:42:08.528Z,4.03
2024-02-07T17:44:41.646Z,4.93
2024-02-07T17:47:16.224Z,3.20
2024-02-07T17:49:49.436Z,4.50
2024-02-07T17:52:22.634Z,4.88
2024-02-07T17:54:56.065Z,2.58
2024-02-07T17:57:29.243Z,3.83
2024-02-07T18:00:02.411Z,4.18
2024-02-07T18:02:39.390Z,3.28
2024-02-07T18:05:12.767Z,3.92
2024-02-07T18:07:46.064Z,4.80
2024-02-07T18:10:19.270Z,2.78
2024-02-07T18:12:53.763Z,2.53
2024-02-07T18:15:27.290Z,4.85
2024-02-07T18:18:04.242Z,4.25
2024-02-07T18:20:39.492Z,3.90
2024-02-07T18:23:12.761Z,3.60
2024-02-07T18:25:45.958Z,3.53
2024-02-07T18:28:19.215Z,3.20
2024-02-07T18:30:52.387Z,4.30
2024-02-07T18:33:26.871Z,3.22
2024-02-07T18:36:00.044Z,4.32
2024-02-07T18:38:33.228Z,3.70
2024-02-07T18:41:06.826Z,3.83
2024-02-07T18:43:40.552Z,3.13
2024-02-07T18:46:13.690Z,2.72
2024-02-07T18:48:48.228Z,3.67
2024-02-07T18:51:23.512Z,3.28
2024-02-07T18:53:56.769Z,3.15
2024-02-07T18:56:29.903Z,4.53
2024-02-07T18:59:03.593Z,4.10
2024-02-07T19:04:11.881Z,2.77
2024-02-07T19:06:45.740Z,2.70
2024-02-07T19:11:56.901Z,4.63
2024-02-07T19:14:30.078Z,3.25
2024-02-07T19:17:03.388Z,2.83
2024-02-07T19:19:39.569Z,3.60
2024-02-07T19:22:12.821Z,3.22
2024-02-07T19:24:45.962Z,4.72
2024-02-07T19:27:19.114Z,3.45
2024-02-07T19:29:52.225Z,3.20
2024-02-07T19:32:25.369Z,4.32
2024-02-07T19:35:02.679Z,4.07
2024-02-07T19:37:37.866Z,4.55
2024-02-07T19:40:11.891Z,2.75
2024-02-07T19:42:45.012Z,3.10
2024-02-07T19:45:18.421Z,3.33
2024-02-07T19:47:52.186Z,4.18
2024-02-07T19:50:26.818Z,3.92
2024-02-07T19:53:00.835Z,3.45
2024-02-07T19:55:34.271Z,3.40
2024-02-07T19:58:09.405Z,3.38
2024-02-07T20:00:42.733Z,3.67
2024-02-07T20:03:15.962Z,3.03
2024-02-07T20:05:50.700Z,3.75
2024-02-07T20:08:23.855Z,4.47
2024-02-07T20:10:57.088Z,3.08
2024-02-07T20:13:30.267Z,3.88
2024-02-07T20:16:03.491Z,4.10
2024-02-07T20:18:36.829Z,3.65
2024-02-07T20:21:12.327Z,3.10
2024-02-07T20:23:45.466Z,4.10
2024-02-07T20:26:18.735Z,2.55
2024-02-07T20:28:51.987Z,4.22
2024-02-07T20:31:25.831Z,3.88
2024-02-07T20:34:00.833Z,4.25
2024-02-07T20:36:37.882Z,4.35
2024-02-07T20:39:11.026Z,3.92
2024-02-07T20:41:45.246Z,3.90
2024-02-07T20:44:22.521Z,4.05
2024-02-07T20:46:55.759Z,4.60
2024-02-07T20:49:29.102Z,4.13
2024-02-07T20:52:03.655Z,3.80
2024-02-07T20:54:38.119Z,3.85
2024-02-07T20:57:11.328Z,3.80
2024-02-07T20:59:44.436Z,2.60
2024-02-07T21:02:17.658Z,3.80
2024-02-07T21:04:50.854Z,4.05
2024-02-07T21:07:26.991Z,4.40
2024-02-07T21:10:00.321Z,3.63
2024-02-07T21:12:33.511Z,5.28
2024-02-07T21:15:07.780Z,5.63
2024-02-07T21:17:41.420Z,3.47
2024-02-07T21:20:16.206Z,3.72
2024-02-07T21:22:51.822Z,4.28
2024-02-07T21:25:25.036Z,4.10
2024-02-07T21:27:58.714Z,3.70
2024-02-07T21:30:33.815Z,3.97
2024-02-07T21:33:07.218Z,7.00
2024-02-07T21:35:41.129Z,5.68
2024-02-07T21:38:15.917Z,5.07
2024-02-07T21:40:49.366Z,4.78
2024-02-07T21:43:22.571Z,4.70
2024-02-07T21:45:55.755Z,5.05
2024-02-07T21:48:28.890Z,4.30
2024-02-07T21:51:02.028Z,4.55
2024-02-07T21:53:36.558Z,5.15
2024-02-07T21:56:09.759Z,5.63
2024-02-07T21:58:42.975Z,3.22
2024-02-07T22:01:16.723Z,3.13
2024-02-07T22:06:22.926Z,4.10
2024-02-07T22:08:57.389Z,2.70
2024-02-07T22:11:30.521Z,5.47
2024-02-07T22:14:03.793Z,4.13
2024-02-07T22:16:36.993Z,3.88
2024-02-07T22:19:10.206Z,4.75
2024-02-07T22:21:43.399Z,3.92
2024-02-07T22:24:17.881Z,5.13
2024-02-07T22:26:51.397Z,5.32
2024-02-07T22:29:24.605Z,3.53
2024-02-07T22:31:57.908Z,4.70
2024-02-07T22:34:31.133Z,3.45
2024-02-07T22:37:04.322Z,4.05
2024-02-07T22:39:38.868Z,4.88
2024-02-07T22:42:14.023Z,4.43
2024-02-07T22:44:47.167Z,3.90
2024-02-07T22:47:20.326Z,5.60
2024-02-07T22:49:53.572Z,5.03
2024-02-07T22:52:27.030Z,5.03
2024-02-07T22:55:01.590Z,3.33
2024-02-07T22:57:34.800Z,3.70
2024-02-07T23:00:15.820Z,4.43
2024-02-07T23:02:49.159Z,3.92
2024-02-07T23:05:22.836Z,5.18
2024-02-07T23:07:56.721Z,4.75
2024-02-07T23:10:31.383Z,4.57
2024-02-07T23:13:05.148Z,3.55
2024-02-07T23:18:11.441Z,3.65
2024-02-07T23:20:44.795Z,4.38
2024-02-07T23:23:18.058Z,3.13
2024-02-07T23:25:52.576Z,4.53
2024-02-07T23:28:25.780Z,3.25
2024-02-07T23:30:58.960Z,4.30
2024-02-07T23:33:32.232Z,3.45
2024-02-07T23:36:05.866Z,4.38
2024-02-07T23:38:39.804Z,2.80
2024-02-07T23:41:14.361Z,3.85
2024-02-07T23:43:47.735Z,3.65
2024-02-07T23:46:21.516Z,5.20
2024-02-07T23:51:27.967Z,4.15
2024-02-07T23:54:01.224Z,4.00
2024-02-07T23:56:35.744Z,4.15
2024-02-07T23:59:08.971Z,3.67
